createdAt,value
2022-09-24T00:01:43.541Z,21.96
2022-09-24T00:04:13.511Z,21.96
2022-09-24T00:06:44.449Z,21.96
2022-09-24T00:09:13.553Z,21.96
2022-09-24T00:11:43.073Z,21.96
2022-09-24T00:14:11.141Z,21.87
2022-09-24T00:16:41.463Z,21.97
2022-09-24T00:19:11.663Z,21.96
2022-09-24T00:21:41.522Z,21.97
2022-09-24T00:24:11.351Z,21.98
2022-09-24T00:26:50.187Z,21.97
2022-09-24T00:29:21.131Z,21.97
2022-09-24T00:31:49.992Z,21.98
2022-09-24T00:34:19.768Z,21.98
2022-09-24T00:36:48.447Z,21.82
2022-09-24T00:39:17.280Z,21.98
2022-09-24T00:41:47.945Z,21.98
2022-09-24T00:44:54.459Z,22.00
2022-09-24T00:47:29.125Z,21.97
2022-09-24T00:50:06.338Z,21.99
2022-09-24T00:52:35.225Z,21.99
2022-09-24T00:55:03.140Z,22.00
2022-09-24T00:57:31.953Z,22.01
2022-09-24T01:00:00.510Z,22.00
2022-09-24T01:02:28.500Z,22.02
2022-09-24T01:04:58.258Z,22.04
2022-09-24T01:07:26.574Z,22.03
2022-09-24T01:09:54.574Z,22.01
2022-09-24T01:12:33.516Z,22.05
2022-09-24T01:15:11.497Z,22.05
2022-09-24T01:17:49.899Z,22.04
2022-09-24T01:20:37.573Z,22.06
2022-09-24T01:23:36.511Z,22.04
2022-09-24T01:26:19.118Z,22.03
2022-09-24T01:29:06.190Z,22.03
2022-09-24T01:31:41.827Z,22.02
2022-09-24T01:34:12.439Z,21.85
2022-09-24T01:36:42.522Z,21.90
2022-09-24T01:39:11.037Z,22.04
2022-09-24T01:41:40.725Z,22.05
2022-09-24T01:44:09.399Z,22.04
2022-09-24T01:46:40.809Z,22.06
2022-09-24T01:49:09.546Z,22.03
2022-09-24T01:51:44.201Z,22.06
2022-09-24T01:54:21.997Z,22.06
2022-09-24T01:56:57.106Z,22.08
2022-09-24T01:59:30.083Z,22.07
2022-09-24T02:02:05.736Z,22.08
2022-09-24T02:04:40.227Z,22.05
2022-09-24T02:07:16.263Z,22.07
2022-09-24T02:09:45.128Z,22.06
2022-09-24T02:12:17.377Z,22.07
2022-09-24T02:14:54.376Z,22.09
2022-09-24T02:17:26.694Z,22.09
2022-09-24T02:19:57.957Z,22.09
2022-09-24T02:22:27.138Z,22.08
2022-09-24T02:24:57.633Z,22.09
2022-09-24T02:27:28.579Z,22.09
2022-09-24T02:29:56.969Z,22.10
2022-09-24T02:32:30.996Z,22.11
2022-09-24T02:35:02.717Z,22.12
2022-09-24T02:37:35.885Z,22.10
2022-09-24T02:40:05.804Z,22.11
2022-09-24T02:42:34.070Z,22.09
2022-09-24T02:45:02.350Z,22.10
2022-09-24T02:47:31.789Z,22.10
2022-09-24T02:50:00.296Z,22.09
2022-09-24T02:52:28.437Z,22.09
2022-09-24T02:54:56.612Z,22.04
2022-09-24T02:57:24.490Z,22.06
2022-09-24T02:59:52.488Z,22.08
2022-09-24T03:02:20.491Z,22.07
2022-09-24T03:04:50.136Z,22.08
2022-09-24T03:07:18.350Z,22.07
2022-09-24T03:09:46.192Z,22.08
2022-09-24T03:12:14.110Z,22.08
2022-09-24T03:14:42.009Z,22.08
2022-09-24T03:17:09.885Z,22.09
2022-09-24T03:19:37.773Z,22.10
2022-09-24T03:22:07.009Z,22.10
2022-09-24T03:24:34.901Z,22.06
2022-09-24T03:27:02.840Z,22.10
2022-09-24T03:29:44.627Z,22.08
2022-09-24T03:32:12.529Z,22.10
2022-09-24T03:34:40.453Z,22.09
2022-09-24T03:37:09.721Z,22.12
2022-09-24T03:39:37.598Z,22.11
2022-09-24T03:42:05.636Z,22.11
2022-09-24T03:44:33.495Z,22.11
2022-09-24T03:47:01.430Z,22.08
2022-09-24T03:49:29.959Z,22.11
2022-09-24T03:51:57.818Z,22.11
2022-09-24T03:54:27.109Z,22.12
2022-09-24T03:56:55.076Z,22.12
2022-09-24T03:59:23.153Z,22.14
2022-09-24T04:01:51.175Z,22.12
2022-09-24T04:04:19.114Z,22.11
2022-09-24T04:06:46.969Z,22.12
2022-09-24T04:09:14.892Z,22.07
2022-09-24T04:11:44.789Z,22.11
2022-09-24T04:14:12.639Z,22.11
2022-09-24T04:16:40.618Z,22.12
2022-09-24T04:19:08.803Z,22.11
2022-09-24T04:21:36.654Z,22.10
2022-09-24T04:24:04.554Z,22.10
2022-09-24T04:26:32.439Z,22.10
2022-09-24T04:29:01.842Z,21.97
2022-09-24T04:31:30.326Z,22.10
2022-09-24T04:33:58.291Z,22.09
2022-09-24T04:36:26.494Z,22.09
2022-09-24T04:38:54.441Z,22.08
2022-09-24T04:41:22.302Z,22.09
2022-09-24T04:43:51.394Z,22.10
2022-09-24T04:46:20.700Z,22.12
2022-09-24T04:48:49.001Z,22.10
2022-09-24T04:51:17.718Z,22.10
2022-09-24T04:53:47.899Z,22.10
2022-09-24T04:56:15.823Z,22.10
2022-09-24T04:58:43.695Z,22.11
2022-09-24T05:01:13.327Z,22.11
2022-09-24T05:03:42.743Z,22.13
2022-09-24T05:06:10.752Z,22.13
2022-09-24T05:08:38.633Z,22.11
2022-09-24T05:11:07.161Z,22.14
2022-09-24T05:13:35.278Z,22.13
2022-09-24T05:16:03.598Z,22.13
2022-09-24T05:18:31.609Z,22.14
2022-09-24T05:21:00.863Z,22.14
2022-09-24T05:23:28.734Z,22.14
2022-09-24T05:26:14.329Z,22.13
2022-09-24T05:28:42.858Z,22.11
2022-09-24T05:31:10.837Z,22.11
2022-09-24T05:33:39.305Z,22.12
2022-09-24T05:36:08.801Z,22.14
2022-09-24T05:38:40.889Z,22.11
2022-09-24T05:41:09.510Z,22.13
2022-09-24T05:43:38.068Z,22.13
2022-09-24T05:46:06.489Z,22.12
2022-09-24T05:48:34.494Z,22.14
2022-09-24T05:51:02.494Z,22.13
2022-09-24T05:53:32.780Z,22.14
2022-09-24T05:56:00.802Z,22.12
2022-09-24T05:58:28.645Z,22.12
2022-09-24T06:00:56.565Z,22.11
2022-09-24T06:03:24.497Z,22.11
2022-09-24T06:05:52.818Z,22.12
2022-09-24T06:08:21.895Z,22.13
2022-09-24T06:10:51.152Z,22.13
2022-09-24T06:13:20.940Z,22.14
2022-09-24T06:15:48.884Z,22.14
2022-09-24T06:18:16.884Z,22.14
2022-09-24T06:20:44.849Z,22.13
2022-09-24T06:23:12.725Z,22.13
2022-09-24T06:25:41.321Z,21.99
2022-09-24T06:28:10.567Z,22.15
2022-09-24T06:30:39.908Z,22.16
2022-09-24T06:33:10.159Z,22.16
2022-09-24T06:35:38.639Z,22.16
2022-09-24T06:38:08.053Z,22.17
2022-09-24T06:40:37.691Z,21.97
2022-09-24T06:43:06.366Z,22.18
2022-09-24T06:45:36.203Z,22.19
2022-09-24T06:48:06.062Z,22.19
2022-09-24T06:50:35.789Z,22.20
2022-09-24T06:53:06.640Z,22.18
2022-09-24T06:55:35.124Z,22.19
2022-09-24T06:58:04.843Z,22.03
2022-09-24T07:00:33.075Z,22.20
2022-09-24T07:03:02.556Z,22.21
2022-09-24T07:05:31.227Z,21.78
2022-09-24T07:07:59.076Z,22.19
2022-09-24T07:10:27.476Z,22.21
2022-09-24T07:12:55.358Z,22.21
2022-09-24T07:15:23.254Z,22.22
2022-09-24T07:17:56.184Z,22.19
2022-09-24T07:20:28.198Z,22.22
2022-09-24T07:22:56.493Z,22.21
2022-09-24T07:25:24.694Z,22.21
2022-09-24T07:27:52.705Z,22.24
2022-09-24T07:30:20.808Z,22.23
2022-09-24T07:32:49.510Z,22.23
2022-09-24T07:35:18.262Z,22.25
2022-09-24T07:37:47.557Z,22.26
2022-09-24T07:40:15.736Z,22.25
2022-09-24T07:42:48.423Z,22.27
2022-09-24T07:45:17.265Z,22.25
2022-09-24T07:47:45.177Z,22.26
2022-09-24T07:50:13.758Z,22.27
2022-09-24T07:52:41.734Z,22.28
2022-09-24T07:55:11.081Z,22.30
2022-09-24T07:57:39.412Z,22.28
2022-09-24T08:00:09.054Z,22.29
2022-09-24T08:02:40.056Z,22.30
2022-09-24T08:05:08.598Z,22.32
2022-09-24T08:07:36.522Z,22.29
2022-09-24T08:10:05.008Z,22.33
2022-09-24T08:12:34.613Z,22.34
2022-09-24T08:15:02.556Z,22.33
2022-09-24T08:17:30.419Z,22.37
2022-09-24T08:19:58.809Z,22.36
2022-09-24T08:22:26.718Z,22.36
2022-09-24T08:24:54.943Z,22.37
2022-09-24T08:27:23.858Z,22.39
2022-09-24T08:29:53.356Z,22.40
2022-09-24T08:32:21.223Z,22.38
2022-09-24T08:34:49.083Z,22.40
2022-09-24T08:37:16.981Z,22.41
2022-09-24T08:39:44.882Z,22.42
2022-09-24T08:42:20.498Z,22.43
2022-09-24T08:45:08.305Z,22.43
2022-09-24T08:47:43.444Z,22.42
2022-09-24T08:50:17.432Z,22.40
2022-09-24T08:53:03.306Z,22.42
2022-09-24T08:55:38.718Z,22.42
2022-09-24T08:58:27.277Z,22.43
2022-09-24T09:01:00.136Z,22.28
2022-09-24T09:03:38.164Z,22.46
2022-09-24T09:06:13.632Z,22.46
2022-09-24T09:09:06.832Z,22.46
2022-09-24T09:11:37.888Z,22.46
2022-09-24T09:14:12.296Z,22.48
2022-09-24T09:16:48.454Z,22.51
2022-09-24T09:19:18.631Z,22.51
2022-09-24T09:21:52.721Z,22.53
2022-09-24T09:24:23.390Z,22.52
2022-09-24T09:26:55.278Z,22.55
2022-09-24T09:29:27.930Z,22.56
2022-09-24T09:32:07.705Z,22.58
2022-09-24T09:35:06.017Z,22.58
2022-09-24T09:37:41.410Z,22.59
2022-09-24T09:40:29.152Z,22.61
2022-09-24T09:43:03.244Z,22.62
2022-09-24T09:45:39.207Z,22.64
2022-09-24T09:48:12.952Z,22.68
2022-09-24T09:50:46.125Z,22.70
2022-09-24T09:53:22.053Z,22.72
2022-09-24T09:55:54.632Z,22.74
2022-09-24T09:58:25.371Z,22.77
2022-09-24T10:00:54.270Z,22.74
2022-09-24T10:03:24.895Z,22.77
2022-09-24T10:05:57.262Z,22.79
2022-09-24T10:08:26.346Z,22.80
2022-09-24T10:10:56.363Z,22.72
2022-09-24T10:13:25.241Z,22.85
2022-09-24T10:15:55.310Z,22.87
2022-09-24T10:18:31.560Z,22.90
2022-09-24T10:21:05.163Z,22.90
2022-09-24T10:23:36.679Z,22.87
2022-09-24T10:26:06.432Z,22.93
2022-09-24T10:28:53.445Z,22.93
2022-09-24T10:31:23.578Z,22.87
2022-09-24T10:33:55.193Z,22.96
2022-09-24T10:36:26.351Z,22.99
2022-09-24T10:39:04.632Z,23.00
2022-09-24T10:41:32.896Z,23.00
2022-09-24T10:44:04.902Z,23.03
2022-09-24T10:46:56.681Z,23.03
2022-09-24T10:49:36.799Z,23.03
2022-09-24T10:52:15.340Z,23.01
2022-09-24T10:54:59.122Z,22.94
2022-09-24T10:57:35.366Z,23.05
2022-09-24T11:00:10.624Z,23.06
2022-09-24T11:03:09.814Z,23.07
2022-09-24T11:05:42.745Z,23.04
2022-09-24T11:08:22.630Z,23.08
2022-09-24T11:11:04.390Z,23.09
2022-09-24T11:13:41.514Z,23.06
2022-09-24T11:16:44.029Z,23.06
2022-09-24T11:19:27.753Z,23.05
2022-09-24T11:22:07.838Z,23.05
2022-09-24T11:24:49.656Z,23.07
2022-09-24T11:27:36.305Z,23.08
2022-09-24T11:30:13.219Z,23.07
2022-09-24T11:32:54.306Z,23.10
2022-09-24T11:35:42.791Z,23.09
2022-09-24T11:38:18.045Z,23.08
2022-09-24T11:41:03.806Z,23.09
2022-09-24T11:43:57.416Z,23.07
2022-09-24T11:46:45.184Z,23.07
2022-09-24T11:49:29.368Z,23.07
2022-09-24T11:52:04.488Z,23.07
2022-09-24T11:54:38.884Z,23.07
2022-09-24T11:57:16.194Z,23.06
2022-09-24T11:59:51.825Z,23.07
2022-09-24T12:02:25.227Z,23.06
2022-09-24T12:05:00.733Z,23.02
2022-09-24T12:07:35.571Z,23.06
2022-09-24T12:10:14.872Z,23.07
2022-09-24T12:12:48.840Z,23.07
2022-09-24T12:15:22.406Z,22.96
2022-09-24T12:17:57.852Z,23.07
2022-09-24T12:20:28.860Z,23.09
2022-09-24T12:23:03.723Z,23.09
2022-09-24T12:25:40.185Z,23.11
2022-09-24T12:28:13.105Z,23.11
2022-09-24T12:31:19.083Z,23.02
2022-09-24T12:33:57.212Z,23.12
2022-09-24T12:36:33.205Z,23.13
2022-09-24T12:39:06.181Z,23.12
2022-09-24T12:41:35.452Z,23.13
2022-09-24T12:44:14.487Z,23.14
2022-09-24T12:46:49.430Z,23.14
2022-09-24T12:49:26.809Z,23.15
2022-09-24T12:51:56.558Z,23.14
2022-09-24T12:54:28.731Z,23.15
2022-09-24T12:57:08.044Z,23.16
2022-09-24T12:59:48.655Z,23.15
2022-09-24T13:02:19.858Z,23.15
2022-09-24T13:05:04.048Z,23.16
2022-09-24T13:07:34.865Z,23.14
2022-09-24T13:10:25.229Z,23.15
2022-09-24T13:12:54.203Z,23.14
2022-09-24T13:15:33.328Z,23.10
2022-09-24T13:18:18.019Z,23.13
2022-09-24T13:20:50.340Z,23.11
2022-09-24T13:23:35.273Z,23.14
2022-09-24T13:26:05.640Z,23.12
2022-09-24T13:28:42.629Z,23.13
2022-09-24T13:31:23.683Z,23.12
2022-09-24T13:33:55.023Z,23.12
2022-09-24T13:36:29.514Z,23.12
2022-09-24T13:39:02.412Z,23.11
2022-09-24T13:41:42.042Z,23.13
2022-09-24T13:44:18.236Z,23.11
2022-09-24T13:46:51.250Z,23.11
2022-09-24T13:49:21.680Z,23.11
2022-09-24T13:52:00.785Z,23.11
2022-09-24T13:54:34.923Z,23.11
2022-09-24T13:57:12.309Z,23.10
2022-09-24T13:59:40.430Z,23.09
2022-09-24T14:05:03.582Z,23.09
2022-09-24T14:07:31.738Z,23.09
2022-09-24T14:10:04.669Z,23.11
2022-09-24T14:12:32.635Z,22.69
2022-09-24T14:15:00.707Z,23.09
2022-09-24T14:17:28.641Z,23.10
2022-09-24T14:19:57.799Z,23.08
2022-09-24T14:22:31.046Z,23.10
2022-09-24T14:25:04.175Z,23.09
2022-09-24T14:27:33.728Z,23.05
2022-09-24T14:30:03.861Z,23.05
2022-09-24T14:32:34.237Z,22.87
2022-09-24T14:35:06.376Z,23.05
2022-09-24T14:37:39.824Z,23.04
2022-09-24T14:40:13.566Z,23.03
2022-09-24T14:42:44.986Z,23.03
2022-09-24T14:45:21.527Z,23.03
2022-09-24T14:48:00.125Z,23.04
2022-09-24T14:50:35.371Z,23.02
2022-09-24T14:53:14.010Z,23.04
2022-09-24T14:55:46.571Z,23.03
2022-09-24T14:58:25.720Z,23.04
2022-09-24T15:00:57.443Z,23.04
2022-09-24T15:03:31.109Z,23.03
2022-09-24T15:06:18.965Z,23.02
2022-09-24T15:08:57.419Z,23.04
2022-09-24T15:11:28.394Z,23.03
2022-09-24T15:14:01.238Z,23.04
2022-09-24T15:16:33.635Z,23.03
2022-09-24T15:19:17.615Z,23.05
2022-09-24T15:21:46.208Z,23.02
2022-09-24T15:24:15.736Z,23.04
2022-09-24T15:26:47.815Z,23.04
2022-09-24T15:29:24.874Z,23.03
2022-09-24T15:31:53.433Z,23.03
2022-09-24T15:34:21.628Z,23.02
2022-09-24T15:36:51.634Z,23.02
2022-09-24T15:39:21.214Z,23.03
2022-09-24T15:41:49.143Z,23.01
2022-09-24T15:44:23.012Z,23.03
2022-09-24T15:46:52.107Z,23.01
2022-09-24T15:49:22.145Z,23.02
2022-09-24T15:51:52.213Z,23.01
2022-09-24T15:54:22.418Z,23.01
2022-09-24T15:56:54.521Z,23.02
2022-09-24T15:59:23.556Z,23.02
2022-09-24T16:01:55.406Z,23.01
2022-09-24T16:04:23.338Z,23.00
2022-09-24T16:06:51.181Z,23.00
2022-09-24T16:09:19.133Z,22.97
2022-09-24T16:11:48.384Z,22.95
2022-09-24T16:14:16.294Z,22.94
2022-09-24T16:16:44.237Z,22.92
2022-09-24T16:19:12.567Z,22.91
2022-09-24T16:21:40.728Z,22.89
2022-09-24T16:24:08.622Z,22.80
2022-09-24T16:26:37.385Z,22.85
2022-09-24T16:29:10.024Z,22.84
2022-09-24T16:31:38.122Z,22.82
2022-09-24T16:34:06.154Z,22.82
2022-09-24T16:36:34.003Z,22.82
2022-09-24T16:39:02.048Z,22.76
2022-09-24T16:41:34.321Z,22.78
2022-09-24T16:44:02.744Z,22.77
2022-09-24T16:46:32.196Z,22.77
2022-09-24T16:49:00.107Z,22.76
2022-09-24T16:51:28.007Z,22.73
2022-09-24T16:53:56.582Z,22.73
2022-09-24T16:56:24.767Z,22.73
2022-09-24T16:58:52.944Z,22.72
2022-09-24T17:01:22.731Z,22.51
2022-09-24T17:03:53.734Z,22.70
2022-09-24T17:06:24.036Z,22.68
2022-09-24T17:09:09.983Z,22.66
2022-09-24T17:11:40.093Z,22.65
2022-09-24T17:14:08.490Z,22.63
2022-09-24T17:16:36.493Z,22.63
2022-09-24T17:19:08.081Z,22.59
2022-09-24T17:21:36.770Z,22.63
2022-09-24T17:24:05.012Z,22.64
2022-09-24T17:26:32.913Z,22.60
2022-09-24T17:29:00.815Z,22.62
2022-09-24T17:31:28.784Z,22.61
2022-09-24T17:33:57.356Z,22.60
2022-09-24T17:36:28.261Z,22.59
2022-09-24T17:38:59.252Z,22.57
2022-09-24T17:41:28.689Z,22.56
2022-09-24T17:43:58.660Z,22.53
2022-09-24T17:46:28.880Z,22.48
2022-09-24T17:48:59.479Z,22.37
2022-09-24T17:51:32.633Z,22.35
2022-09-24T17:54:02.397Z,22.47
2022-09-24T17:56:33.104Z,22.45
2022-09-24T17:59:01.053Z,22.42
2022-09-24T18:01:33.440Z,22.41
2022-09-24T18:04:01.768Z,22.42
2022-09-24T18:06:33.023Z,22.40
2022-09-24T18:09:02.514Z,22.40
2022-09-24T18:11:32.841Z,22.40
2022-09-24T18:14:02.772Z,22.41
2022-09-24T18:16:32.418Z,22.41
2022-09-24T18:19:01.426Z,22.05
2022-09-24T18:21:31.753Z,22.42
2022-09-24T18:24:01.257Z,22.41
2022-09-24T18:26:31.599Z,22.40
2022-09-24T18:29:01.956Z,22.40
2022-09-24T18:31:31.087Z,22.39
2022-09-24T18:34:03.970Z,22.30
2022-09-24T18:36:34.400Z,22.38
2022-09-24T18:39:03.060Z,22.34
2022-09-24T18:41:31.812Z,22.38
2022-09-24T18:44:00.531Z,22.38
2022-09-24T18:46:30.411Z,22.37
2022-09-24T18:48:59.676Z,22.39
2022-09-24T18:51:30.150Z,22.36
2022-09-24T18:54:01.302Z,22.38
2022-09-24T18:56:29.780Z,22.35
2022-09-24T18:58:59.469Z,22.35
2022-09-24T19:01:28.081Z,22.38
2022-09-24T19:03:57.270Z,22.38
2022-09-24T19:06:25.629Z,22.34
2022-09-24T19:08:53.677Z,22.37
2022-09-24T19:11:24.598Z,22.37
2022-09-24T19:13:54.904Z,22.36
2022-09-24T19:16:26.332Z,22.36
2022-09-24T19:18:55.738Z,22.36
2022-09-24T19:21:25.206Z,22.36
2022-09-24T19:23:54.926Z,22.36
2022-09-24T19:26:28.238Z,22.37
2022-09-24T19:28:57.330Z,22.36
2022-09-24T19:31:29.940Z,22.37
2022-09-24T19:33:59.024Z,22.34
2022-09-24T19:36:27.957Z,22.34
2022-09-24T19:38:56.398Z,22.32
2022-09-24T19:41:27.559Z,22.32
2022-09-24T19:43:58.580Z,22.32
2022-09-24T19:46:28.393Z,22.30
2022-09-24T19:48:58.811Z,22.29
2022-09-24T19:51:29.551Z,22.28
2022-09-24T19:54:01.122Z,22.26
2022-09-24T19:56:32.455Z,22.27
2022-09-24T19:59:02.489Z,22.26
2022-09-24T20:01:32.535Z,22.24
2022-09-24T20:04:04.457Z,22.23
2022-09-24T20:06:34.413Z,22.21
2022-09-24T20:09:02.892Z,22.19
2022-09-24T20:11:33.018Z,22.19
2022-09-24T20:14:02.065Z,22.20
2022-09-24T20:16:32.560Z,22.18
2022-09-24T20:19:01.656Z,22.18
2022-09-24T20:21:34.640Z,22.19
2022-09-24T20:24:04.347Z,22.18
2022-09-24T20:26:52.159Z,22.17
2022-09-24T20:29:22.116Z,22.16
2022-09-24T20:31:53.536Z,22.17
2022-09-24T20:34:23.434Z,22.16
2022-09-24T20:36:51.794Z,22.15
2022-09-24T20:39:20.142Z,22.15
2022-09-24T20:41:50.229Z,22.14
2022-09-24T20:44:18.505Z,22.09
2022-09-24T20:46:46.402Z,22.14
2022-09-24T20:49:22.902Z,22.15
2022-09-24T20:51:56.190Z,22.13
2022-09-24T20:54:26.151Z,22.14
2022-09-24T20:56:55.936Z,22.16
2022-09-24T20:59:25.035Z,22.14
2022-09-24T21:01:53.296Z,22.13
2022-09-24T21:04:22.257Z,22.15
2022-09-24T21:06:50.828Z,21.93
2022-09-24T21:09:18.914Z,22.14
2022-09-24T21:11:47.864Z,22.16
2022-09-24T21:14:17.857Z,22.14
2022-09-24T21:16:46.005Z,22.15
2022-09-24T21:19:15.515Z,22.16
2022-09-24T21:21:43.649Z,22.16
2022-09-24T21:24:14.373Z,22.16
2022-09-24T21:26:44.898Z,22.17
2022-09-24T21:29:16.456Z,22.17
2022-09-24T21:31:47.960Z,22.16
2022-09-24T21:34:18.008Z,22.16
2022-09-24T21:36:46.535Z,22.14
2022-09-24T21:39:16.403Z,22.14
2022-09-24T21:41:45.194Z,22.08
2022-09-24T21:44:16.145Z,22.14
2022-09-24T21:46:46.163Z,22.14
2022-09-24T21:49:14.175Z,22.12
2022-09-24T21:51:43.349Z,21.96
2022-09-24T21:54:15.417Z,22.08
2022-09-24T21:56:43.685Z,22.09
2022-09-24T21:59:25.730Z,21.93
2022-09-24T22:01:55.940Z,22.08
2022-09-24T22:04:24.248Z,22.07
2022-09-24T22:06:52.594Z,22.06
2022-09-24T22:09:21.545Z,22.06
2022-09-24T22:11:51.423Z,22.05
2022-09-24T22:14:19.561Z,22.06
2022-09-24T22:16:47.488Z,22.07
2022-09-24T22:19:16.886Z,22.08
2022-09-24T22:21:45.228Z,22.05
2022-09-24T22:24:13.107Z,22.09
2022-09-24T22:26:41.088Z,22.11
2022-09-24T22:29:08.940Z,22.11
2022-09-24T22:31:36.922Z,22.12
2022-09-24T22:34:21.921Z,22.13
2022-09-24T22:36:51.560Z,22.13
2022-09-24T22:39:19.480Z,22.13
2022-09-24T22:41:47.517Z,22.14
2022-09-24T22:44:15.535Z,22.14
2022-09-24T22:46:43.461Z,22.14
2022-09-24T22:49:11.921Z,22.16
2022-09-24T22:51:39.964Z,22.15
2022-09-24T22:54:10.197Z,22.17
2022-09-24T22:56:38.292Z,22.05
2022-09-24T22:59:07.185Z,22.18
2022-09-24T23:01:39.630Z,22.19
2022-09-24T23:04:07.649Z,22.16
2022-09-24T23:06:35.587Z,22.17
2022-09-24T23:09:03.866Z,22.18
2022-09-24T23:11:35.204Z,22.17
2022-09-24T23:14:04.998Z,22.18
2022-09-24T23:16:34.994Z,22.19
2022-09-24T23:19:06.202Z,22.19
2022-09-24T23:21:35.223Z,22.20
2022-09-24T23:24:05.644Z,22.23
2022-09-24T23:26:35.313Z,22.07
2022-09-24T23:29:03.252Z,22.24
2022-09-24T23:31:33.276Z,22.25
2022-09-24T23:34:01.965Z,22.23
2022-09-24T23:36:32.239Z,22.24
2022-09-24T23:39:01.090Z,22.24
2022-09-24T23:41:31.610Z,22.25
2022-09-24T23:44:01.214Z,22.24
2022-09-24T23:46:29.604Z,22.21
2022-09-24T23:48:57.944Z,22.23
2022-09-24T23:51:26.054Z,22.22
2022-09-24T23:53:54.040Z,22.21
2022-09-24T23:56:22.063Z,22.21
2022-09-24T23:58:50.322Z,22.21
